Time;durP1;ratioP1;P1;durP2;ratioP2;P2;SDS_P1;SDS_P2;PMS_P1;PMS_P2;Temp;Humidity;BMP_temperature;BMP_pressure;BME280_temperature;BME280_humidity;BME280_pressure;Samples;Min_cycle;Max_cycle;Signal;HPM_P1;HPM_P2
2023/11/29 00:00:07;;;;;;;4.50;2.40;;;;;;;12.13;100.00;98235.44;108147;1286;21977;-66
2023/11/29 00:02:33;;;;;;;5.40;2.20;;;;;;;12.16;100.00;98232.84;108235;1286;22026;-69
2023/11/29 00:04:59;;;;;;;5.80;2.10;;;;;;;12.17;100.00;98232.60;108144;1286;22024;-71
2023/11/29 00:07:25;;;;;;;5.90;2.60;;;;;;;12.19;100.00;98232.67;108173;1274;23644;-67
2023/11/29 00:09:50;;;;;;;6.30;2.90;;;;;;;12.19;100.00;98236.54;108119;1286;21985;-66
2023/11/29 00:12:16;;;;;;;7.00;2.50;;;;;;;12.18;100.00;98236.63;108134;1284;23638;-69
2023/11/29 00:14:41;;;;;;;6.20;2.90;;;;;;;12.18;100.00;98236.42;108156;1280;21990;-70
2023/11/29 00:17:07;;;;;;;7.40;3.10;;;;;;;12.16;100.00;98225.42;108132;1286;21986;-70
2023/11/29 00:19:33;;;;;;;10.90;3.70;;;;;;;12.16;100.00;98222.11;108246;1286;22020;-70
2023/11/29 00:21:58;;;;;;;9.70;3.80;;;;;;;12.17;100.00;98219.27;108220;1286;24394;-69
2023/11/29 00:24:24;;;;;;;12.30;3.50;;;;;;;12.17;100.00;98215.91;108131;1286;23638;-70
2023/11/29 00:26:49;;;;;;;14.90;3.70;;;;;;;12.14;100.00;98213.42;108111;1286;21986;-67
2023/11/29 00:29:15;;;;;;;10.20;3.80;;;;;;;12.22;100.00;98206.14;108157;1285;23212;-70
2023/11/29 00:31:41;;;;;;;10.50;3.50;;;;;;;12.19;100.00;98206.98;108315;1285;21983;-69
2023/11/29 00:34:06;;;;;;;12.70;3.90;;;;;;;12.18;100.00;98205.45;108074;1274;21989;-70
2023/11/29 00:36:32;;;;;;;11.00;3.90;;;;;;;12.18;100.00;98203.73;108152;1285;21990;-70
2023/11/29 00:38:57;;;;;;;15.00;4.30;;;;;;;12.18;100.00;98206.69;108106;1285;21996;-70
2023/11/29 00:41:24;;;;;;;13.30;4.30;;;;;;;12.22;100.00;98199.98;108220;1286;22002;-68
2023/11/29 00:43:50;;;;;;;14.30;4.30;;;;;;;12.21;100.00;98201.82;108193;1286;23663;-70
2023/11/29 00:46:15;;;;;;;14.10;4.60;;;;;;;12.15;100.00;98199.85;108240;1286;21997;-67
2023/11/29 00:48:41;;;;;;;10.50;3.70;;;;;;;12.21;100.00;98196.88;108156;1277;23637;-69
2023/11/29 00:51:07;;;;;;;10.10;4.00;;;;;;;12.20;100.00;98198.16;108140;1286;22271;-66
2023/11/29 00:53:32;;;;;;;9.90;3.60;;;;;;;12.16;100.00;98200.29;108264;1284;21984;-68
2023/11/29 00:55:58;;;;;;;8.60;3.80;;;;;;;12.15;100.00;98199.31;108219;1286;21992;-70
2023/11/29 00:58:25;;;;;;;12.60;4.20;;;;;;;12.14;100.00;98190.04;108163;1277;23630;-67
2023/11/29 01:00:51;;;;;;;9.40;3.80;;;;;;;12.16;100.00;98191.15;108133;1286;21994;-69
2023/11/29 01:03:17;;;;;;;11.10;4.60;;;;;;;12.16;100.00;98184.67;108184;1286;21992;-67
2023/11/29 01:05:43;;;;;;;8.40;3.80;;;;;;;12.15;100.00;98179.80;108113;1281;21989;-68
2023/11/29 01:08:08;;;;;;;10.30;3.70;;;;;;;12.11;100.00;98185.96;108155;1286;24409;-69
2023/11/29 01:10:39;;;;;;;10.30;4.20;;;;;;;12.01;100.00;98181.60;108199;1286;21992;-67
2023/11/29 01:13:06;;;;;;;9.20;3.60;;;;;;;11.98;100.00;98180.18;108126;1280;22083;-66
2023/11/29 01:15:31;;;;;;;8.30;3.10;;;;;;;12.02;100.00;98177.36;108168;1286;23609;-69
2023/11/29 01:17:57;;;;;;;11.70;3.70;;;;;;;12.01;100.00;98171.23;108127;1284;21996;-68
2023/11/29 01:20:23;;;;;;;11.20;3.80;;;;;;;12.00;100.00;98169.16;108172;1286;24325;-70
2023/11/29 01:22:48;;;;;;;11.10;3.60;;;;;;;11.98;100.00;98169.09;108179;1284;23644;-69
2023/11/29 01:25:14;;;;;;;10.80;3.80;;;;;;;11.96;100.00;98168.10;108168;1284;21996;-70
2023/11/29 01:27:40;;;;;;;10.40;4.00;;;;;;;11.95;100.00;98164.45;108135;1285;21984;-69
2023/11/29 01:30:07;;;;;;;11.70;3.40;;;;;;;11.92;100.00;98162.73;108091;1285;22027;-67
2023/11/29 01:32:33;;;;;;;9.00;3.40;;;;;;;11.93;100.00;98158.27;108240;1285;23053;-69
2023/11/29 01:34:58;;;;;;;9.50;3.40;;;;;;;11.94;100.00;98165.97;108092;1277;22084;-66
2023/11/29 01:37:24;;;;;;;7.70;2.90;;;;;;;11.91;100.00;98165.06;108085;1285;22019;-69
2023/11/29 01:39:50;;;;;;;12.90;4.20;;;;;;;11.94;100.00;98163.15;108244;1277;21986;-67
2023/11/29 01:42:15;;;;;;;11.70;3.70;;;;;;;11.90;100.00;98158.42;108179;1280;23631;-68
2023/11/29 01:44:41;;;;;;;9.40;3.50;;;;;;;11.94;100.00;98158.05;108143;1286;21992;-66
2023/11/29 01:47:11;;;;;;;7.80;3.20;;;;;;;11.91;100.00;98158.01;108193;1276;23647;-69
2023/11/29 01:49:37;;;;;;;7.90;3.90;;;;;;;11.87;100.00;98160.32;108231;1285;22013;-67
2023/11/29 01:52:02;;;;;;;7.60;3.20;;;;;;;11.86;100.00;98166.38;108169;1285;23718;-67
2023/11/29 01:54:28;;;;;;;8.40;3.20;;;;;;;11.86;100.00;98164.08;108158;1280;23650;-70
2023/11/29 01:56:54;;;;;;;9.00;3.20;;;;;;;11.86;100.00;98164.09;108278;1280;21983;-67
2023/11/29 01:59:20;;;;;;;9.50;2.90;;;;;;;11.75;100.00;98163.94;108315;1286;22046;-67
2023/11/29 02:01:45;;;;;;;9.60;3.40;;;;;;;11.75;100.00;98166.06;108170;1277;21981;-69
2023/11/29 02:04:12;;;;;;;6.70;2.80;;;;;;;11.79;100.00;98171.80;108231;1285;21984;-66
2023/11/29 02:06:39;;;;;;;10.40;2.90;;;;;;;11.77;100.00;98177.04;108284;1280;23621;-69
2023/11/29 02:09:05;;;;;;;11.80;4.00;;;;;;;11.77;100.00;98180.90;108122;1285;21992;-67
2023/11/29 02:11:30;;;;;;;12.60;3.60;;;;;;;11.77;100.00;98188.10;108068;1285;21984;-67
2023/11/29 02:13:56;;;;;;;8.00;3.10;;;;;;;11.75;100.00;98184.67;108037;1285;21987;-70
2023/11/29 02:16:22;;;;;;;10.50;3.30;;;;;;;11.79;100.00;98179.41;108089;1281;21982;-69
2023/11/29 02:18:47;;;;;;;10.20;3.00;;;;;;;11.78;100.00;98185.04;108154;1286;22003;-69
2023/11/29 02:21:13;;;;;;;10.10;3.30;;;;;;;11.78;100.00;98185.93;108079;1277;21975;-71
2023/11/29 02:23:48;;;;;;;9.80;2.90;;;;;;;11.77;100.00;98184.21;108072;1285;22196;-66
2023/11/29 02:26:14;;;;;;;11.10;3.20;;;;;;;11.75;100.00;98183.27;108112;1284;21995;-69
2023/11/29 02:28:39;;;;;;;9.60;3.40;;;;;;;11.73;100.00;98181.42;108224;1280;21991;-67
2023/11/29 02:31:05;;;;;;;8.90;3.40;;;;;;;11.72;100.00;98182.03;108042;1285;21994;-66
2023/11/29 02:33:31;;;;;;;9.80;3.40;;;;;;;11.64;100.00;98194.90;108074;1280;21999;-67
2023/11/29 02:35:57;;;;;;;10.10;3.20;;;;;;;11.61;100.00;98204.02;108104;1277;23170;-70
2023/11/29 02:38:22;;;;;;;8.80;3.50;;;;;;;11.57;100.00;98199.28;108104;1286;21995;-69
2023/11/29 02:40:48;;;;;;;11.50;3.80;;;;;;;11.50;100.00;98199.11;108112;1284;21992;-69
2023/11/29 02:43:14;;;;;;;11.40;2.80;;;;;;;11.44;100.00;98195.76;108131;1280;21995;-66
2023/11/29 02:45:39;;;;;;;14.40;3.60;;;;;;;11.37;100.00;98194.87;108148;1280;22057;-69
2023/11/29 02:48:05;;;;;;;12.60;3.00;;;;;;;11.31;100.00;98195.35;108099;1280;21985;-69
2023/11/29 02:50:31;;;;;;;9.10;3.10;;;;;;;11.27;100.00;98193.96;108115;1287;23679;-67
2023/11/29 02:52:57;;;;;;;9.30;4.10;;;;;;;11.24;100.00;98199.53;108194;1286;23718;-68
2023/11/29 02:55:23;;;;;;;10.30;3.40;;;;;;;11.23;100.00;98202.61;108141;1287;22173;-67
2023/11/29 02:57:49;;;;;;;9.60;3.50;;;;;;;11.25;100.00;98198.83;108248;1286;21985;-67
2023/11/29 03:00:15;;;;;;;9.30;3.30;;;;;;;11.20;100.00;98196.61;108167;1286;21989;-69
2023/11/29 03:02:41;;;;;;;7.20;2.90;;;;;;;11.18;100.00;98194.77;108161;1283;21998;-70
2023/11/29 03:05:07;;;;;;;11.40;6.20;;;;;;;11.16;100.00;98197.33;108137;1286;21988;-69
2023/11/29 03:07:33;;;;;;;13.30;7.10;;;;;;;11.13;100.00;98189.04;108185;1277;21982;-69
2023/11/29 03:09:58;;;;;;;13.70;8.30;;;;;;;11.10;100.00;98185.16;108144;1286;21989;-67
2023/11/29 03:12:24;;;;;;;15.40;8.90;;;;;;;11.08;100.00;98192.77;108131;1284;21986;-67
2023/11/29 03:14:50;;;;;;;16.20;8.20;;;;;;;11.08;100.00;98193.66;108155;1286;23149;-69
2023/11/29 03:17:15;;;;;;;8.90;4.00;;;;;;;11.03;100.00;98195.65;108132;1281;23612;-69
2023/11/29 03:19:41;;;;;;;7.20;3.90;;;;;;;11.02;100.00;98197.48;108096;1286;216632;-67
2023/11/29 03:22:06;;;;;;;11.60;4.30;;;;;;;11.00;100.00;98208.27;108137;1286;21989;-67
2023/11/29 03:24:32;;;;;;;8.60;4.40;;;;;;;10.97;100.00;98210.19;108142;1286;24372;-68
2023/11/29 03:26:58;;;;;;;10.80;4.20;;;;;;;10.90;100.00;98215.09;108235;1286;23653;-69
2023/11/29 03:29:24;;;;;;;8.00;3.70;;;;;;;10.82;100.00;98217.02;108173;1283;21988;-69
2023/11/29 03:31:50;;;;;;;7.00;3.40;;;;;;;10.77;100.00;98212.84;108118;1286;21986;-68
2023/11/29 03:34:16;;;;;;;11.10;8.10;;;;;;;10.71;100.00;98204.56;108126;1286;22452;-67
2023/11/29 03:36:42;;;;;;;7.00;4.60;;;;;;;10.64;100.00;98209.96;108094;1285;22461;-69
2023/11/29 03:39:09;;;;;;;7.50;4.50;;;;;;;10.57;100.00;98206.95;108137;1285;22080;-67
2023/11/29 03:41:35;;;;;;;11.00;4.40;;;;;;;10.52;100.00;98219.85;108057;1285;21986;-68
2023/11/29 03:44:00;;;;;;;9.30;4.60;;;;;;;10.45;100.00;98231.75;108112;1285;22048;-67
2023/11/29 03:46:26;;;;;;;8.80;4.70;;;;;;;10.39;100.00;98237.39;108080;1285;22247;-68
2023/11/29 03:48:52;;;;;;;6.90;4.50;;;;;;;10.34;100.00;98246.04;108105;1285;23644;-68
2023/11/29 03:51:17;;;;;;;8.60;4.40;;;;;;;10.31;100.00;98253.39;108100;1286;21957;-67
2023/11/29 03:53:43;;;;;;;7.70;4.00;;;;;;;10.26;100.00;98247.94;108062;1285;21986;-67
2023/11/29 03:56:09;;;;;;;7.70;3.70;;;;;;;10.23;100.00;98253.36;108102;1286;21989;-69
2023/11/29 03:58:34;;;;;;;8.60;4.50;;;;;;;10.22;100.00;98259.91;108081;1285;21984;-68
2023/11/29 04:01:03;;;;;;;8.20;5.20;;;;;;;10.20;100.00;98261.56;108098;1285;21989;-70
2023/11/29 04:03:29;;;;;;;9.90;5.80;;;;;;;10.19;100.00;98256.21;108146;1285;21986;-70
2023/11/29 04:05:54;;;;;;;7.80;5.00;;;;;;;10.16;100.00;98250.34;108081;1286;21983;-70
2023/11/29 04:08:20;;;;;;;9.10;4.70;;;;;;;10.12;100.00;98249.31;108126;1285;21995;-68
2023/11/29 04:10:46;;;;;;;8.90;5.50;;;;;;;10.07;100.00;98239.55;108159;1277;21992;-68
2023/11/29 04:13:12;;;;;;;8.90;5.50;;;;;;;10.05;100.00;98235.27;108119;1286;21997;-69
2023/11/29 04:15:37;;;;;;;7.70;4.70;;;;;;;10.03;100.00;98238.98;108107;1284;21992;-67
2023/11/29 04:18:03;;;;;;;11.10;5.80;;;;;;;10.00;100.00;98240.91;108177;1286;22003;-67
2023/11/29 04:20:29;;;;;;;9.80;6.00;;;;;;;9.97;100.00;98230.31;108229;1285;23682;-68
2023/11/29 04:22:55;;;;;;;7.70;5.40;;;;;;;9.94;100.00;98226.09;108157;1281;21984;-67
2023/11/29 04:25:20;;;;;;;9.30;5.60;;;;;;;9.88;100.00;98229.86;108190;1285;22190;-70
2023/11/29 04:27:46;;;;;;;9.40;6.30;;;;;;;9.82;100.00;98228.19;108168;1281;21970;-70
2023/11/29 04:30:12;;;;;;;10.10;5.90;;;;;;;9.74;100.00;98239.20;108109;1285;24329;-70
2023/11/29 04:32:38;;;;;;;8.40;5.70;;;;;;;9.66;100.00;98250.23;108155;1285;21984;-69
2023/11/29 04:35:04;;;;;;;11.00;6.60;;;;;;;9.60;100.00;98259.41;108113;1285;21989;-67
2023/11/29 04:37:30;;;;;;;10.60;7.30;;;;;;;9.51;100.00;98264.51;108147;1286;21975;-67
2023/11/29 04:39:55;;;;;;;10.20;7.10;;;;;;;9.43;100.00;98274.65;108145;1286;21989;-67
2023/11/29 04:42:21;;;;;;;10.90;7.30;;;;;;;9.42;100.00;98284.16;108189;1286;22027;-68
2023/11/29 04:44:47;;;;;;;12.00;6.90;;;;;;;9.34;100.00;98291.11;108182;1286;22741;-68
2023/11/29 04:47:14;;;;;;;11.40;7.60;;;;;;;9.32;100.00;98298.38;108138;1286;23685;-71
2023/11/29 04:49:41;;;;;;;10.30;7.30;;;;;;;9.28;100.00;98295.41;108167;1277;22030;-69
2023/11/29 04:52:06;;;;;;;10.90;7.90;;;;;;;9.22;100.00;98287.23;108148;1285;24307;-69
2023/11/29 04:54:32;;;;;;;10.40;8.00;;;;;;;9.22;100.00;98289.84;108251;1286;21986;-67
2023/11/29 04:56:58;;;;;;;11.30;7.90;;;;;;;9.20;100.00;98296.04;108149;1285;21987;-67
2023/11/29 04:59:24;;;;;;;9.90;7.30;;;;;;;9.19;100.00;98302.75;108117;1286;21990;-71
2023/11/29 05:01:50;;;;;;;10.00;7.50;;;;;;;9.22;100.00;98306.11;108235;1281;24351;-70
2023/11/29 05:04:16;;;;;;;11.00;7.90;;;;;;;9.21;100.00;98304.05;108175;1285;21999;-72
2023/11/29 05:06:41;;;;;;;12.30;8.40;;;;;;;9.24;100.00;98313.77;108078;1282;21991;-66
2023/11/29 05:09:07;;;;;;;11.10;8.20;;;;;;;9.25;100.00;98330.69;108149;1286;22021;-67
2023/11/29 05:11:33;;;;;;;10.80;7.40;;;;;;;9.24;100.00;98337.36;108143;1273;21988;-67
2023/11/29 05:13:58;;;;;;;10.30;8.00;;;;;;;9.24;100.00;98336.33;108221;1286;23711;-72
2023/11/29 05:16:24;;;;;;;10.60;8.00;;;;;;;9.24;100.00;98338.08;108148;1282;23720;-72
2023/11/29 05:18:50;;;;;;;11.10;7.90;;;;;;;9.21;100.00;98352.17;108193;1286;22062;-67
2023/11/29 05:21:17;;;;;;;12.60;7.50;;;;;;;9.21;100.00;98358.13;108136;1284;23673;-66
2023/11/29 05:23:43;;;;;;;11.50;8.40;;;;;;;9.24;100.00;98360.13;108149;1286;22003;-71
2023/11/29 05:26:09;;;;;;;9.00;7.20;;;;;;;9.26;100.00;98364.79;108125;1286;22223;-73
2023/11/29 05:28:35;;;;;;;9.80;7.00;;;;;;;9.27;100.00;98372.63;108275;1276;21992;-66
2023/11/29 05:31:01;;;;;;;11.20;7.30;;;;;;;9.28;100.00;98383.21;108156;1280;23714;-72
2023/11/29 05:33:28;;;;;;;10.40;7.30;;;;;;;9.30;100.00;98385.41;108160;1286;21975;-71
2023/11/29 05:35:56;;;;;;;10.40;7.30;;;;;;;9.31;100.00;98394.31;108110;1285;22978;-72
2023/11/29 05:38:23;;;;;;;10.80;8.10;;;;;;;9.30;100.00;98402.02;108124;1274;21983;-71
2023/11/29 05:40:49;;;;;;;11.20;7.60;;;;;;;9.29;100.00;98405.92;108219;1281;21995;-71
2023/11/29 05:43:15;;;;;;;11.70;8.00;;;;;;;9.29;100.00;98411.02;108237;1285;21997;-72
2023/11/29 05:45:41;;;;;;;10.70;7.00;;;;;;;9.31;100.00;98417.61;108212;1286;21987;-68
2023/11/29 05:48:07;;;;;;;8.80;7.20;;;;;;;9.30;100.00;98427.63;108145;1286;21995;-71
2023/11/29 05:50:35;;;;;;;10.30;7.20;;;;;;;9.29;100.00;98424.33;108115;1280;22103;-68
2023/11/29 05:53:00;;;;;;;13.20;8.70;;;;;;;9.26;100.00;98423.39;108191;1280;23762;-67
2023/11/29 05:55:26;;;;;;;10.20;8.00;;;;;;;9.23;100.00;98425.10;108194;1286;23762;-73
2023/11/29 05:57:52;;;;;;;12.60;8.90;;;;;;;9.18;100.00;98431.93;108158;1286;23654;-72
2023/11/29 06:00:18;;;;;;;13.60;8.40;;;;;;;9.14;100.00;98439.23;108140;1286;24332;-68
2023/11/29 06:02:44;;;;;;;9.90;7.60;;;;;;;9.14;100.00;98451.86;108094;1277;21992;-72
2023/11/29 06:05:10;;;;;;;12.40;8.90;;;;;;;9.13;100.00;98463.42;108170;1286;22002;-68
2023/11/29 06:07:36;;;;;;;12.00;8.40;;;;;;;9.13;100.00;98470.06;108130;1286;22023;-67
2023/11/29 06:10:03;;;;;;;12.70;8.50;;;;;;;9.15;100.00;98474.56;108150;1281;21987;-68
2023/11/29 06:12:30;;;;;;;17.70;9.20;;;;;;;9.20;100.00;98474.52;108047;1286;21996;-72
2023/11/29 06:14:56;;;;;;;11.30;8.40;;;;;;;9.22;100.00;98485.14;108163;1286;22956;-72
2023/11/29 06:17:23;;;;;;;11.80;8.70;;;;;;;9.20;100.00;98495.02;108112;1286;23306;-70
2023/11/29 06:19:49;;;;;;;13.60;9.20;;;;;;;9.20;100.00;98502.73;108175;1286;21989;-72
2023/11/29 06:22:15;;;;;;;13.80;8.50;;;;;;;9.21;100.00;98506.89;108107;1283;21994;-72
2023/11/29 06:24:41;;;;;;;11.10;8.20;;;;;;;9.23;100.00;98510.32;108168;1283;21987;-68
2023/11/29 06:27:07;;;;;;;11.20;8.30;;;;;;;9.25;100.00;98517.95;108139;1285;23721;-73
2023/11/29 06:29:33;;;;;;;10.90;8.60;;;;;;;9.25;100.00;98522.34;108283;1286;21988;-68
2023/11/29 06:31:58;;;;;;;11.20;8.10;;;;;;;9.27;100.00;98528.19;108240;1286;21985;-68
2023/11/29 06:34:24;;;;;;;13.10;9.10;;;;;;;9.27;100.00;98528.89;108259;1286;22004;-68
2023/11/29 06:36:50;;;;;;;12.60;8.70;;;;;;;9.31;100.00;98536.11;108077;1286;23346;-73
2023/11/29 06:39:17;;;;;;;12.60;9.00;;;;;;;9.33;100.00;98541.81;108193;1280;21989;-73
2023/11/29 06:41:47;;;;;;;12.50;9.20;;;;;;;9.33;100.00;98547.58;108095;1286;22002;-68
2023/11/29 06:44:13;;;;;;;14.60;10.50;;;;;;;9.31;100.00;98556.92;108291;1286;21979;-68
2023/11/29 06:46:40;;;;;;;12.40;8.90;;;;;;;9.27;100.00;98566.52;108189;1285;22974;-73
2023/11/29 06:49:07;;;;;;;11.60;8.70;;;;;;;9.20;100.00;98572.20;109032;1286;22185;-73
2023/11/29 06:51:33;;;;;;;11.90;9.20;;;;;;;9.18;100.00;98580.66;108085;1285;21995;-73
2023/11/29 06:53:58;;;;;;;12.20;8.30;;;;;;;9.19;100.00;98591.33;108171;1277;23712;-73
2023/11/29 06:56:24;;;;;;;10.30;8.80;;;;;;;9.17;100.00;98598.55;108105;1285;21988;-67
2023/11/29 06:58:51;;;;;;;13.30;8.60;;;;;;;9.12;100.00;98608.86;108249;1284;22032;-67
2023/11/29 07:01:17;;;;;;;10.60;7.80;;;;;;;9.13;100.00;98615.66;108243;1286;21996;-73
2023/11/29 07:03:42;;;;;;;12.30;7.90;;;;;;;9.14;100.00;98617.36;108056;1280;24319;-73
2023/11/29 07:06:08;;;;;;;11.90;8.50;;;;;;;9.14;100.00;98618.77;108067;1281;23717;-73
2023/11/29 07:08:34;;;;;;;11.20;7.40;;;;;;;9.15;100.00;98621.73;108109;1286;23707;-73
2023/11/29 07:11:04;;;;;;;12.50;7.70;;;;;;;9.19;100.00;98625.63;108182;1285;22045;-73
2023/11/29 07:13:30;;;;;;;11.30;8.00;;;;;;;9.24;100.00;98628.39;108243;1286;22041;-68
2023/11/29 07:15:56;;;;;;;10.70;7.70;;;;;;;9.30;100.00;98632.38;108225;1285;21991;-74
2023/11/29 07:18:24;;;;;;;10.60;7.50;;;;;;;9.36;100.00;98637.97;108152;1285;21998;-68
2023/11/29 07:20:50;;;;;;;11.40;7.20;;;;;;;9.41;100.00;98649.00;108116;1283;22061;-73
2023/11/29 07:23:15;;;;;;;10.10;7.60;;;;;;;9.44;100.00;98655.18;108086;1285;22173;-68
2023/11/29 07:25:41;;;;;;;10.20;7.40;;;;;;;9.47;100.00;98661.05;108170;1285;21990;-74
2023/11/29 07:28:07;;;;;;;10.40;6.80;;;;;;;9.49;100.00;98667.95;108098;1285;21994;-75
2023/11/29 07:30:32;;;;;;;11.50;7.90;;;;;;;9.55;100.00;98670.90;108082;1285;21973;-69
2023/11/29 07:32:58;;;;;;;9.80;7.40;;;;;;;9.60;100.00;98671.60;108255;1286;21983;-67
2023/11/29 07:35:24;;;;;;;10.70;7.60;;;;;;;9.62;100.00;98672.08;108262;1285;24398;-73
2023/11/29 07:37:49;;;;;;;10.80;8.20;;;;;;;9.62;100.00;98688.00;108141;1286;23631;-67
2023/11/29 07:40:15;;;;;;;10.20;7.60;;;;;;;9.58;100.00;98699.53;108068;1286;24352;-74
2023/11/29 07:42:41;;;;;;;12.40;7.40;;;;;;;9.63;100.00;98709.84;107396;1285;1002632;-67
2023/11/29 07:45:07;;;;;;;10.30;7.10;;;;;;;9.69;100.00;98717.36;108117;1285;21987;-74
2023/11/29 07:47:35;;;;;;;12.60;8.60;;;;;;;9.73;100.00;98724.73;108140;1285;21998;-73
2023/11/29 07:50:01;;;;;;;10.90;7.60;;;;;;;9.77;100.00;98735.65;108233;1285;21997;-66
2023/11/29 07:52:36;;;;;;;9.90;7.70;;;;;;;9.72;100.00;98750.52;108350;1286;21992;-73
2023/11/29 07:55:07;;;;;;;9.70;7.30;;;;;;;9.69;100.00;98763.26;108062;1286;22465;-72
2023/11/29 07:57:33;;;;;;;11.00;7.70;;;;;;;9.64;100.00;98768.30;108152;1285;23449;-72
2023/11/29 07:59:59;;;;;;;11.10;7.30;;;;;;;9.70;100.00;98776.52;108113;1275;22002;-72
2023/11/29 08:02:24;;;;;;;10.70;8.00;;;;;;;9.73;100.00;98778.88;108056;1279;22204;-71
2023/11/29 08:04:50;;;;;;;11.20;8.10;;;;;;;9.69;100.00;98787.76;108077;1281;21993;-67
2023/11/29 08:07:16;;;;;;;11.70;8.40;;;;;;;9.66;100.00;98793.14;108084;1285;23726;-70
2023/11/29 08:09:44;;;;;;;11.20;7.40;;;;;;;9.61;100.00;98807.29;108041;1286;21992;-66
2023/11/29 08:12:11;;;;;;;10.70;8.20;;;;;;;9.56;100.00;98812.54;108063;1286;22873;-66
2023/11/29 08:14:36;;;;;;;12.30;8.50;;;;;;;9.51;100.00;98816.36;108145;1286;22273;-66
2023/11/29 08:17:03;;;;;;;11.00;8.40;;;;;;;9.45;100.00;98816.56;108090;1285;21992;-67
2023/11/29 08:19:29;;;;;;;12.80;10.10;;;;;;;9.45;100.00;98812.38;108157;1285;22121;-66
2023/11/29 08:21:54;;;;;;;12.40;9.90;;;;;;;9.45;100.00;98813.06;108121;1281;21993;-66
2023/11/29 08:24:20;;;;;;;13.10;10.00;;;;;;;9.58;100.00;98814.73;108334;1280;23049;-68
2023/11/29 08:26:46;;;;;;;13.60;9.60;;;;;;;9.65;100.00;98819.45;108122;1286;22001;-66
2023/11/29 08:29:12;;;;;;;14.30;10.40;;;;;;;9.74;100.00;98828.23;108318;1286;22009;-68
2023/11/29 08:31:37;;;;;;;15.20;11.10;;;;;;;9.77;100.00;98828.99;107626;1285;1002173;-68
2023/11/29 08:34:03;;;;;;;14.20;10.30;;;;;;;9.75;100.00;98832.41;108371;1285;21989;-65
2023/11/29 08:36:32;;;;;;;15.30;11.20;;;;;;;9.60;100.00;98837.97;108395;1284;21991;-63
2023/11/29 08:38:57;;;;;;;17.70;11.70;;;;;;;9.46;100.00;98837.02;108235;1280;21989;-66
2023/11/29 08:41:23;;;;;;;17.10;11.60;;;;;;;9.33;100.00;98835.51;108180;1286;21997;-63
2023/11/29 08:43:48;;;;;;;15.10;11.50;;;;;;;9.28;100.00;98846.71;108049;1280;21986;-64
2023/11/29 08:46:14;;;;;;;16.50;11.90;;;;;;;9.21;100.00;98850.96;108071;1286;21987;-66
2023/11/29 08:48:40;;;;;;;14.90;10.90;;;;;;;9.16;100.00;98853.70;108629;1280;21986;-64
2023/11/29 08:51:07;;;;;;;16.20;11.50;;;;;;;9.16;100.00;98860.56;108271;1286;22004;-66
2023/11/29 08:53:34;;;;;;;18.40;13.50;;;;;;;9.10;100.00;98860.73;108179;1284;22140;-64
2023/11/29 08:55:59;;;;;;;15.20;12.20;;;;;;;9.11;100.00;98861.91;108230;1284;21989;-66
2023/11/29 08:58:25;;;;;;;15.50;12.20;;;;;;;9.11;100.00;98872.59;108139;1285;22067;-64
2023/11/29 09:00:51;;;;;;;17.80;12.80;;;;;;;9.09;100.00;98885.41;108275;1286;21996;-66
2023/11/29 09:03:17;;;;;;;16.00;13.20;;;;;;;9.10;100.00;98888.55;108307;1286;21991;-64
2023/11/29 09:05:43;;;;;;;17.40;12.60;;;;;;;9.09;100.00;98901.34;108083;1280;21984;-64
2023/11/29 09:08:09;;;;;;;16.70;11.90;;;;;;;9.01;100.00;98909.30;108146;1286;22146;-65
2023/11/29 09:10:37;;;;;;;16.70;11.90;;;;;;;8.94;100.00;98919.80;108207;1285;21993;-66
2023/11/29 09:13:05;;;;;;;14.60;11.10;;;;;;;8.86;100.00;98923.88;108165;1282;21992;-64
2023/11/29 09:15:33;;;;;;;17.30;12.20;;;;;;;8.82;100.00;98931.36;108267;1279;21985;-64
2023/11/29 09:18:00;;;;;;;17.80;13.00;;;;;;;8.79;100.00;98933.54;108181;1285;21989;-65
2023/11/29 09:20:26;;;;;;;17.00;12.10;;;;;;;8.82;100.00;98933.61;108128;1277;21988;-64
2023/11/29 09:22:53;;;;;;;15.10;11.60;;;;;;;8.96;100.00;98936.72;108069;1285;21999;-64
2023/11/29 09:25:19;;;;;;;19.00;12.50;;;;;;;9.09;100.00;98941.08;108077;1285;21992;-64
2023/11/29 09:27:44;;;;;;;16.20;11.90;;;;;;;9.09;100.00;98946.14;108089;1282;21989;-64
2023/11/29 09:30:13;;;;;;;14.20;11.60;;;;;;;9.07;100.00;98958.63;108106;1285;21982;-65
2023/11/29 09:32:39;;;;;;;14.90;11.30;;;;;;;8.91;100.00;98961.34;108209;1273;21989;-64
2023/11/29 09:35:06;;;;;;;14.20;11.00;;;;;;;8.87;100.00;98969.87;108547;1285;23756;-64
2023/11/29 09:37:33;;;;;;;19.20;12.30;;;;;;;8.77;100.00;98980.80;108502;1286;21994;-65
2023/11/29 09:39:58;;;;;;;15.40;11.00;;;;;;;8.68;100.00;98988.73;108103;1282;21987;-64
2023/11/29 09:42:26;;;;;;;15.50;10.50;;;;;;;8.61;100.00;98991.55;108112;1281;21990;-64
2023/11/29 09:44:53;;;;;;;14.20;11.10;;;;;;;8.67;100.00;98992.09;108112;1284;21991;-65
2023/11/29 09:47:23;;;;;;;19.40;11.90;;;;;;;8.74;100.00;98994.01;108119;1281;21990;-61
2023/11/29 09:49:50;;;;;;;16.80;12.30;;;;;;;8.82;100.00;98997.80;108181;1280;22000;-63
2023/11/29 09:52:15;;;;;;;16.60;12.10;;;;;;;8.83;100.00;98999.37;108155;1286;23730;-63
2023/11/29 09:54:41;;;;;;;15.50;11.30;;;;;;;9.01;100.00;98998.02;108100;1286;21999;-63
2023/11/29 09:57:06;;;;;;;17.50;12.70;;;;;;;9.16;100.00;98997.76;108088;1286;21994;-64
2023/11/29 09:59:33;;;;;;;16.40;12.60;;;;;;;9.04;100.00;99003.52;108123;1286;21986;-64
2023/11/29 10:02:02;;;;;;;14.70;11.70;;;;;;;8.99;100.00;99020.96;108158;1281;22000;-64
2023/11/29 10:04:28;;;;;;;15.30;12.10;;;;;;;8.94;100.00;99031.95;108088;1277;22012;-65
2023/11/29 10:06:54;;;;;;;22.20;11.70;;;;;;;9.06;100.00;99044.03;108208;1285;22036;-64
2023/11/29 10:09:20;;;;;;;16.20;11.80;;;;;;;9.18;100.00;99050.01;108031;1286;21993;-63
2023/11/29 10:11:45;;;;;;;15.10;11.20;;;;;;;9.23;100.00;99058.63;108158;1285;22023;-65
2023/11/29 10:14:11;;;;;;;17.00;11.10;;;;;;;9.32;100.00;99058.20;108242;1285;21996;-65
2023/11/29 10:16:39;;;;;;;15.50;11.50;;;;;;;9.39;100.00;99058.55;108158;1286;21956;-63
2023/11/29 10:19:09;;;;;;;14.70;10.30;;;;;;;9.45;100.00;99063.27;108245;1279;21992;-64
2023/11/29 10:21:39;;;;;;;15.50;11.50;;;;;;;9.51;100.00;99063.45;108237;1286;22008;-64
2023/11/29 10:24:05;;;;;;;13.70;10.70;;;;;;;9.56;100.00;99057.52;108296;1285;21986;-64
2023/11/29 10:26:31;;;;;;;16.00;11.10;;;;;;;9.55;100.00;99054.05;108201;1284;22447;-65
2023/11/29 10:28:56;;;;;;;15.00;10.80;;;;;;;9.62;100.00;99058.56;108135;1285;21984;-65
2023/11/29 10:31:22;;;;;;;14.50;11.30;;;;;;;9.73;100.00;99066.83;108150;1286;21995;-64
2023/11/29 10:33:48;;;;;;;14.50;10.20;;;;;;;9.77;100.00;99069.70;108046;1286;22006;-64
2023/11/29 10:36:13;;;;;;;12.70;9.40;;;;;;;9.85;100.00;99064.36;108192;1278;22022;-64
2023/11/29 10:38:43;;;;;;;15.90;11.70;;;;;;;9.90;100.00;99066.14;108195;1273;21995;-63
2023/11/29 10:41:08;;;;;;;15.30;11.20;;;;;;;9.86;100.00;99068.21;108272;1286;21995;-65
2023/11/29 10:43:38;;;;;;;13.20;11.20;;;;;;;9.71;100.00;99067.08;108038;1286;21988;-63
2023/11/29 10:46:25;;;;;;;14.20;9.40;;;;;;;9.83;100.00;99074.40;108148;1286;22752;-65
2023/11/29 10:48:54;;;;;;;12.70;10.30;;;;;;;9.88;100.00;99091.10;105897;1286;1002623;-65
2023/11/29 10:51:20;;;;;;;13.80;10.40;;;;;;;9.93;100.00;99096.89;108292;1282;22002;-64
2023/11/29 10:53:48;;;;;;;15.50;11.40;;;;;;;9.89;100.00;99099.10;108250;1284;21989;-63
2023/11/29 10:56:13;;;;;;;13.40;9.40;;;;;;;9.85;100.00;99095.38;108177;1286;22116;-63
2023/11/29 10:59:01;;;;;;;13.30;10.20;;;;;;;9.93;100.00;99097.41;108219;1286;21984;-64
2023/11/29 11:01:32;;;;;;;13.00;9.20;;;;;;;10.03;100.00;99098.17;108143;1286;22000;-63
2023/11/29 11:03:59;;;;;;;12.20;9.20;;;;;;;10.15;100.00;99103.23;108242;1275;23058;-63
2023/11/29 11:06:29;;;;;;;13.30;9.40;;;;;;;10.19;100.00;99115.75;108180;1285;21986;-65
2023/11/29 11:08:57;;;;;;;12.20;9.60;;;;;;;10.26;100.00;99128.84;108245;1285;21983;-65